sensor_id;sensor_type;location;lat;lon;timestamp;temperature;humidity
47921;DHT22;33686;48.770;9.186;2023-08-08T05:17:22;15.30;99.90
47921;DHT22;33686;48.770;9.186;2023-08-08T05:19:48;15.50;99.90
47921;DHT22;33686;48.770;9.186;2023-08-08T05:22:13;15.70;99.90
47921;DHT22;33686;48.770;9.186;2023-08-08T05:24:39;16.40;99.90
47921;DHT22;33686;48.770;9.186;2023-08-08T05:27:05;17.10;99.90
47921;DHT22;33686;48.770;9.186;2023-08-08T05:29:30;18.00;99.90
47921;DHT22;33686;48.770;9.186;2023-08-08T05:31:56;18.70;99.90
47921;DHT22;33686;48.770;9.186;2023-08-08T05:34:23;19.10;99.90
47921;DHT22;33686;48.770;9.186;2023-08-08T05:36:49;19.50;99.90
47921;DHT22;33686;48.770;9.186;2023-08-08T05:39:14;19.70;99.90
47921;DHT22;33686;48.770;9.186;2023-08-08T05:41:40;19.80;99.90
47921;DHT22;33686;48.770;9.186;2023-08-08T05:44:05;20.20;99.90
47921;DHT22;33686;48.770;9.186;2023-08-08T05:46:31;19.40;99.90
47921;DHT22;33686;48.770;9.186;2023-08-08T05:48:57;19.10;99.90
47921;DHT22;33686;48.770;9.186;2023-08-08T05:51:22;19.70;99.90
47921;DHT22;33686;48.770;9.186;2023-08-08T05:53:48;20.60;99.90
47921;DHT22;33686;48.770;9.186;2023-08-08T05:56:13;21.20;99.90
47921;DHT22;33686;48.770;9.186;2023-08-08T05:58:39;21.50;99.90
47921;DHT22;33686;48.770;9.186;2023-08-08T06:01:05;22.10;99.90
47921;DHT22;33686;48.770;9.186;2023-08-08T06:03:34;22.10;99.90
47921;DHT22;33686;48.770;9.186;2023-08-08T06:06:00;22.30;99.90
47921;DHT22;33686;48.770;9.186;2023-08-08T06:08:25;22.10;99.90
47921;DHT22;33686;48.770;9.186;2023-08-08T06:10:51;22.70;99.90
47921;DHT22;33686;48.770;9.186;2023-08-08T06:13:17;23.30;99.90
47921;DHT22;33686;48.770;9.186;2023-08-08T06:15:42;23.40;99.90
47921;DHT22;33686;48.770;9.186;2023-08-08T06:18:08;23.50;99.90
47921;DHT22;33686;48.770;9.186;2023-08-08T06:20:33;24.00;99.90
47921;DHT22;33686;48.770;9.186;2023-08-08T06:22:59;23.90;99.90
47921;DHT22;33686;48.770;9.186;2023-08-08T06:25:24;24.40;99.90
47921;DHT22;33686;48.770;9.186;2023-08-08T06:27:50;24.80;99.90
47921;DHT22;33686;48.770;9.186;2023-08-08T06:30:16;24.90;99.90
47921;DHT22;33686;48.770;9.186;2023-08-08T06:32:41;24.10;99.90
47921;DHT22;33686;48.770;9.186;2023-08-08T06:35:07;24.80;99.70
47921;DHT22;33686;48.770;9.186;2023-08-08T06:37:32;25.30;99.10
47921;DHT22;33686;48.770;9.186;2023-08-08T06:39:58;25.20;98.60
47921;DHT22;33686;48.770;9.186;2023-08-08T06:42:23;25.10;98.90
47921;DHT22;33686;48.770;9.186;2023-08-08T06:44:55;24.80;98.90
47921;DHT22;33686;48.770;9.186;2023-08-08T06:47:20;24.60;99.40
47921;DHT22;33686;48.770;9.186;2023-08-08T06:49:46;24.10;99.70
47921;DHT22;33686;48.770;9.186;2023-08-08T06:52:12;24.30;99.40
47921;DHT22;33686;48.770;9.186;2023-08-08T06:54:37;24.10;99.80
47921;DHT22;33686;48.770;9.186;2023-08-08T06:57:03;24.10;99.80
47921;DHT22;33686;48.770;9.186;2023-08-08T06:59:29;24.60;99.20
47921;DHT22;33686;48.770;9.186;2023-08-08T07:01:55;24.80;99.20
47921;DHT22;33686;48.770;9.186;2023-08-08T07:04:21;24.60;99.20
47921;DHT22;33686;48.770;9.186;2023-08-08T07:06:48;24.80;99.10
47921;DHT22;33686;48.770;9.186;2023-08-08T07:09:13;24.70;99.00
47921;DHT22;33686;48.770;9.186;2023-08-08T07:11:40;25.00;98.90
47921;DHT22;33686;48.770;9.186;2023-08-08T07:14:06;25.30;98.60
47921;DHT22;33686;48.770;9.186;2023-08-08T07:16:31;25.50;98.70
47921;DHT22;33686;48.770;9.186;2023-08-08T07:18:57;25.00;99.00
47921;DHT22;33686;48.770;9.186;2023-08-08T07:21:22;25.00;98.60
47921;DHT22;33686;48.770;9.186;2023-08-08T07:23:48;25.20;98.60
47921;DHT22;33686;48.770;9.186;2023-08-08T07:26:13;25.50;98.30
47921;DHT22;33686;48.770;9.186;2023-08-08T07:28:39;25.60;98.30
47921;DHT22;33686;48.770;9.186;2023-08-08T07:31:05;26.00;97.90
47921;DHT22;33686;48.770;9.186;2023-08-08T07:33:30;26.40;97.40
47921;DHT22;33686;48.770;9.186;2023-08-08T07:35:56;26.40;97.20
47921;DHT22;33686;48.770;9.186;2023-08-08T07:38:22;26.30;97.10
47921;DHT22;33686;48.770;9.186;2023-08-08T07:40:47;26.50;96.70
47921;DHT22;33686;48.770;9.186;2023-08-08T07:43:13;26.70;96.80
47921;DHT22;33686;48.770;9.186;2023-08-08T07:45:39;27.10;96.10
47921;DHT22;33686;48.770;9.186;2023-08-08T07:48:05;26.80;95.90
47921;DHT22;33686;48.770;9.186;2023-08-08T07:50:30;26.70;96.20
47921;DHT22;33686;48.770;9.186;2023-08-08T07:52:56;27.40;96.10
47921;DHT22;33686;48.770;9.186;2023-08-08T07:55:22;27.20;95.90
47921;DHT22;33686;48.770;9.186;2023-08-08T07:57:47;26.30;96.60
47921;DHT22;33686;48.770;9.186;2023-08-08T08:00:13;25.70;96.50
47921;DHT22;33686;48.770;9.186;2023-08-08T08:02:39;25.10;96.50
47921;DHT22;33686;48.770;9.186;2023-08-08T08:05:05;24.20;97.30
47921;DHT22;33686;48.770;9.186;2023-08-08T08:07:33;23.90;98.00
47921;DHT22;33686;48.770;9.186;2023-08-08T08:09:59;23.40;98.90
47921;DHT22;33686;48.770;9.186;2023-08-08T08:12:24;22.80;99.00
47921;DHT22;33686;48.770;9.186;2023-08-08T08:14:50;22.90;99.00
47921;DHT22;33686;48.770;9.186;2023-08-08T08:17:15;22.50;99.50
47921;DHT22;33686;48.770;9.186;2023-08-08T08:19:41;22.90;99.00
47921;DHT22;33686;48.770;9.186;2023-08-08T08:22:06;22.40;99.90
47921;DHT22;33686;48.770;9.186;2023-08-08T08:24:32;22.60;99.60
47921;DHT22;33686;48.770;9.186;2023-08-08T08:26:58;22.90;99.30
47921;DHT22;33686;48.770;9.186;2023-08-08T08:29:23;23.10;99.10
47921;DHT22;33686;48.770;9.186;2023-08-08T08:31:49;22.20;99.80
47921;DHT22;33686;48.770;9.186;2023-08-08T08:34:14;21.90;99.90
47921;DHT22;33686;48.770;9.186;2023-08-08T08:36:40;22.10;99.90
47921;DHT22;33686;48.770;9.186;2023-08-08T08:39:05;21.80;99.90
47921;DHT22;33686;48.770;9.186;2023-08-08T08:41:31;22.00;99.90
47921;DHT22;33686;48.770;9.186;2023-08-08T08:43:57;21.90;99.90
47921;DHT22;33686;48.770;9.186;2023-08-08T08:46:22;22.80;99.90
47921;DHT22;33686;48.770;9.186;2023-08-08T08:48:50;23.20;99.80
47921;DHT22;33686;48.770;9.186;2023-08-08T08:51:18;23.70;99.10
47921;DHT22;33686;48.770;9.186;2023-08-08T08:53:43;24.00;98.90
47921;DHT22;33686;48.770;9.186;2023-08-08T08:56:12;23.60;99.30
47921;DHT22;33686;48.770;9.186;2023-08-08T08:58:38;24.10;98.90
47921;DHT22;33686;48.770;9.186;2023-08-08T09:01:04;24.40;98.40
47921;DHT22;33686;48.770;9.186;2023-08-08T09:03:30;24.80;97.90
47921;DHT22;33686;48.770;9.186;2023-08-08T09:05:56;25.10;97.40
47921;DHT22;33686;48.770;9.186;2023-08-08T09:08:22;25.60;96.60
47921;DHT22;33686;48.770;9.186;2023-08-08T09:10:47;25.80;96.00
47921;DHT22;33686;48.770;9.186;2023-08-08T09:13:13;25.50;96.40
47921;DHT22;33686;48.770;9.186;2023-08-08T09:15:38;25.00;96.60
47921;DHT22;33686;48.770;9.186;2023-08-08T09:18:05;24.70;97.20
47921;DHT22;33686;48.770;9.186;2023-08-08T09:20:32;24.80;97.10
47921;DHT22;33686;48.770;9.186;2023-08-08T09:22:58;24.60;97.50
47921;DHT22;33686;48.770;9.186;2023-08-08T09:25:24;24.40;97.10
47921;DHT22;33686;48.770;9.186;2023-08-08T09:27:52;24.30;97.70
47921;DHT22;33686;48.770;9.186;2023-08-08T09:30:21;24.00;97.80
47921;DHT22;33686;48.770;9.186;2023-08-08T09:32:47;24.00;98.00
47921;DHT22;33686;48.770;9.186;2023-08-08T09:35:13;23.90;98.40
47921;DHT22;33686;48.770;9.186;2023-08-08T09:37:38;24.00;97.60
47921;DHT22;33686;48.770;9.186;2023-08-08T09:40:04;24.00;97.40
47921;DHT22;33686;48.770;9.186;2023-08-08T09:42:30;24.50;96.80
47921;DHT22;33686;48.770;9.186;2023-08-08T09:44:57;25.10;95.80
47921;DHT22;33686;48.770;9.186;2023-08-08T09:47:23;24.70;96.20
47921;DHT22;33686;48.770;9.186;2023-08-08T09:49:48;24.60;96.00
47921;DHT22;33686;48.770;9.186;2023-08-08T09:52:14;24.20;96.40
47921;DHT22;33686;48.770;9.186;2023-08-08T09:54:40;23.70;96.80
47921;DHT22;33686;48.770;9.186;2023-08-08T09:57:06;24.10;96.30
47921;DHT22;33686;48.770;9.186;2023-08-08T09:59:32;24.10;96.30
47921;DHT22;33686;48.770;9.186;2023-08-08T10:01:58;24.10;96.40
47921;DHT22;33686;48.770;9.186;2023-08-08T10:04:24;24.20;96.80
47921;DHT22;33686;48.770;9.186;2023-08-08T10:06:49;24.10;97.20
47921;DHT22;33686;48.770;9.186;2023-08-08T10:09:15;24.00;97.00
47921;DHT22;33686;48.770;9.186;2023-08-08T10:11:40;24.40;96.60
47921;DHT22;33686;48.770;9.186;2023-08-08T10:14:08;24.50;96.20
47921;DHT22;33686;48.770;9.186;2023-08-08T10:16:36;24.30;95.80
47921;DHT22;33686;48.770;9.186;2023-08-08T10:19:02;24.20;95.80
47921;DHT22;33686;48.770;9.186;2023-08-08T10:21:32;24.10;95.70
47921;DHT22;33686;48.770;9.186;2023-08-08T10:24:05;24.10;95.80
47921;DHT22;33686;48.770;9.186;2023-08-08T10:26:32;24.20;95.40
47921;DHT22;33686;48.770;9.186;2023-08-08T10:28:58;23.80;94.60
47921;DHT22;33686;48.770;9.186;2023-08-08T10:31:24;23.60;95.00
47921;DHT22;33686;48.770;9.186;2023-08-08T10:33:59;23.30;94.80
47921;DHT22;33686;48.770;9.186;2023-08-08T10:36:25;23.40;95.20
47921;DHT22;33686;48.770;9.186;2023-08-08T10:38:51;24.00;94.60
47921;DHT22;33686;48.770;9.186;2023-08-08T10:41:18;24.20;94.60
47921;DHT22;33686;48.770;9.186;2023-08-08T10:43:54;24.20;95.20
47921;DHT22;33686;48.770;9.186;2023-08-08T10:46:23;24.10;94.30
47921;DHT22;33686;48.770;9.186;2023-08-08T10:48:53;23.80;94.20
47921;DHT22;33686;48.770;9.186;2023-08-08T10:51:19;23.80;94.00
47921;DHT22;33686;48.770;9.186;2023-08-08T10:53:45;23.60;93.40
47921;DHT22;33686;48.770;9.186;2023-08-08T10:56:14;23.60;94.10
47921;DHT22;33686;48.770;9.186;2023-08-08T10:58:40;23.30;93.10
47921;DHT22;33686;48.770;9.186;2023-08-08T11:01:06;23.30;93.10
47921;DHT22;33686;48.770;9.186;2023-08-08T11:03:39;22.90;93.90
47921;DHT22;33686;48.770;9.186;2023-08-08T11:06:08;23.10;93.60
47921;DHT22;33686;48.770;9.186;2023-08-08T11:08:34;22.90;93.50
47921;DHT22;33686;48.770;9.186;2023-08-08T11:11:01;22.60;93.50
47921;DHT22;33686;48.770;9.186;2023-08-08T11:13:27;22.40;94.10
47921;DHT22;33686;48.770;9.186;2023-08-08T11:15:53;22.10;94.60
47921;DHT22;33686;48.770;9.186;2023-08-08T11:18:19;22.40;94.20
47921;DHT22;33686;48.770;9.186;2023-08-08T11:20:45;22.40;93.40
47921;DHT22;33686;48.770;9.186;2023-08-08T11:23:10;22.60;93.50
47921;DHT22;33686;48.770;9.186;2023-08-08T11:25:39;22.70;94.00
47921;DHT22;33686;48.770;9.186;2023-08-08T11:30:42;23.20;94.00
47921;DHT22;33686;48.770;9.186;2023-08-08T11:33:08;23.30;93.80
47921;DHT22;33686;48.770;9.186;2023-08-08T11:35:34;23.00;93.70
47921;DHT22;33686;48.770;9.186;2023-08-08T11:38:00;23.10;93.30
47921;DHT22;33686;48.770;9.186;2023-08-08T11:40:26;22.70;93.20
47921;DHT22;33686;48.770;9.186;2023-08-08T11:42:53;23.00;92.20
47921;DHT22;33686;48.770;9.186;2023-08-08T11:45:19;23.20;92.40
47921;DHT22;33686;48.770;9.186;2023-08-08T11:47:48;22.80;93.10
47921;DHT22;33686;48.770;9.186;2023-08-08T11:50:14;22.80;93.40
47921;DHT22;33686;48.770;9.186;2023-08-08T11:52:40;22.80;93.20
47921;DHT22;33686;48.770;9.186;2023-08-08T11:55:09;22.60;93.70
47921;DHT22;33686;48.770;9.186;2023-08-08T11:57:35;22.60;93.90
47921;DHT22;33686;48.770;9.186;2023-08-08T12:00:02;22.30;94.80
47921;DHT22;33686;48.770;9.186;2023-08-08T12:02:39;22.30;93.90
47921;DHT22;33686;48.770;9.186;2023-08-08T12:05:05;22.60;93.30
47921;DHT22;33686;48.770;9.186;2023-08-08T12:07:31;22.90;93.50
47921;DHT22;33686;48.770;9.186;2023-08-08T12:09:57;22.80;93.40
47921;DHT22;33686;48.770;9.186;2023-08-08T12:12:23;23.30;92.90
47921;DHT22;33686;48.770;9.186;2023-08-08T12:14:53;23.10;92.70
47921;DHT22;33686;48.770;9.186;2023-08-08T12:17:20;22.80;93.20
47921;DHT22;33686;48.770;9.186;2023-08-08T12:19:47;23.10;93.20
47921;DHT22;33686;48.770;9.186;2023-08-08T12:22:13;23.50;93.40
47921;DHT22;33686;48.770;9.186;2023-08-08T12:24:39;23.70;92.60
47921;DHT22;33686;48.770;9.186;2023-08-08T12:27:04;23.60;92.60
47921;DHT22;33686;48.770;9.186;2023-08-08T12:29:30;23.40;92.60
47921;DHT22;33686;48.770;9.186;2023-08-08T12:31:56;23.20;93.10
47921;DHT22;33686;48.770;9.186;2023-08-08T12:34:22;23.10;92.80
47921;DHT22;33686;48.770;9.186;2023-08-08T12:36:47;22.90;93.10
47921;DHT22;33686;48.770;9.186;2023-08-08T12:39:13;22.80;93.40
47921;DHT22;33686;48.770;9.186;2023-08-08T12:41:39;23.00;93.30
47921;DHT22;33686;48.770;9.186;2023-08-08T12:44:05;23.10;93.60
47921;DHT22;33686;48.770;9.186;2023-08-08T12:46:30;23.00;94.00
47921;DHT22;33686;48.770;9.186;2023-08-08T12:48:56;22.90;94.20
47921;DHT22;33686;48.770;9.186;2023-08-08T12:51:21;23.10;94.60
47921;DHT22;33686;48.770;9.186;2023-08-08T12:53:47;23.60;93.80
47921;DHT22;33686;48.770;9.186;2023-08-08T12:56:13;23.80;93.40
47921;DHT22;33686;48.770;9.186;2023-08-08T12:58:38;23.50;92.60
47921;DHT22;33686;48.770;9.186;2023-08-08T13:01:06;23.70;93.10
47921;DHT22;33686;48.770;9.186;2023-08-08T13:03:31;23.30;93.40
47921;DHT22;33686;48.770;9.186;2023-08-08T13:05:59;23.00;93.50
47921;DHT22;33686;48.770;9.186;2023-08-08T13:08:25;22.90;93.80
47921;DHT22;33686;48.770;9.186;2023-08-08T13:10:51;22.70;94.00
47921;DHT22;33686;48.770;9.186;2023-08-08T13:13:16;23.10;93.90
47921;DHT22;33686;48.770;9.186;2023-08-08T13:15:42;23.20;94.10
47921;DHT22;33686;48.770;9.186;2023-08-08T13:18:07;23.30;94.00
47921;DHT22;33686;48.770;9.186;2023-08-08T13:20:33;23.10;93.90
47921;DHT22;33686;48.770;9.186;2023-08-08T13:22:58;23.10;94.20
47921;DHT22;33686;48.770;9.186;2023-08-08T13:25:24;22.80;94.70
47921;DHT22;33686;48.770;9.186;2023-08-08T13:27:49;22.80;95.20
47921;DHT22;33686;48.770;9.186;2023-08-08T13:30:15;22.60;95.50
47921;DHT22;33686;48.770;9.186;2023-08-08T13:32:42;22.60;95.80
47921;DHT22;33686;48.770;9.186;2023-08-08T13:35:07;22.80;95.70
47921;DHT22;33686;48.770;9.186;2023-08-08T13:37:33;23.00;95.60
47921;DHT22;33686;48.770;9.186;2023-08-08T13:39:58;23.00;95.50
47921;DHT22;33686;48.770;9.186;2023-08-08T13:42:24;22.80;95.70
47921;DHT22;33686;48.770;9.186;2023-08-08T13:44:49;22.40;96.50
47921;DHT22;33686;48.770;9.186;2023-08-08T13:47:15;22.50;96.50
47921;DHT22;33686;48.770;9.186;2023-08-08T13:49:40;22.60;95.80
47921;DHT22;33686;48.770;9.186;2023-08-08T13:52:06;22.90;95.80
47921;DHT22;33686;48.770;9.186;2023-08-08T13:54:31;23.30;95.90
47921;DHT22;33686;48.770;9.186;2023-08-08T13:56:57;23.30;95.70
47921;DHT22;33686;48.770;9.186;2023-08-08T13:59:23;23.40;95.30
47921;DHT22;33686;48.770;9.186;2023-08-08T14:01:49;23.50;95.30
47921;DHT22;33686;48.770;9.186;2023-08-08T14:04:14;23.70;95.00
47921;DHT22;33686;48.770;9.186;2023-08-08T14:06:40;23.40;95.00
47921;DHT22;33686;48.770;9.186;2023-08-08T14:09:05;23.50;95.20
47921;DHT22;33686;48.770;9.186;2023-08-08T14:11:31;23.30;94.50
47921;DHT22;33686;48.770;9.186;2023-08-08T14:13:57;23.00;95.00
47921;DHT22;33686;48.770;9.186;2023-08-08T14:16:22;23.10;94.70
47921;DHT22;33686;48.770;9.186;2023-08-08T14:18:48;22.70;94.90
47921;DHT22;33686;48.770;9.186;2023-08-08T14:21:14;22.70;95.00
47921;DHT22;33686;48.770;9.186;2023-08-08T14:23:40;22.80;95.10
47921;DHT22;33686;48.770;9.186;2023-08-08T14:26:05;23.00;95.20
47921;DHT22;33686;48.770;9.186;2023-08-08T14:28:31;22.80;95.40
47921;DHT22;33686;48.770;9.186;2023-08-08T14:30:56;22.70;95.40
47921;DHT22;33686;48.770;9.186;2023-08-08T14:33:22;22.80;95.30
47921;DHT22;33686;48.770;9.186;2023-08-08T14:35:48;22.70;95.50
47921;DHT22;33686;48.770;9.186;2023-08-08T14:38:13;22.60;95.90
47921;DHT22;33686;48.770;9.186;2023-08-08T14:40:39;22.40;96.40
47921;DHT22;33686;48.770;9.186;2023-08-08T14:43:05;22.40;96.50
47921;DHT22;33686;48.770;9.186;2023-08-08T14:45:35;22.50;96.40
47921;DHT22;33686;48.770;9.186;2023-08-08T14:48:03;22.50;96.70
47921;DHT22;33686;48.770;9.186;2023-08-08T14:50:28;22.20;97.00
47921;DHT22;33686;48.770;9.186;2023-08-08T14:52:54;22.10;97.00
47921;DHT22;33686;48.770;9.186;2023-08-08T14:55:19;22.30;97.10
47921;DHT22;33686;48.770;9.186;2023-08-08T14:57:45;22.50;97.20
47921;DHT22;33686;48.770;9.186;2023-08-08T15:00:10;22.50;97.00
47921;DHT22;33686;48.770;9.186;2023-08-08T15:02:38;22.40;97.40
47921;DHT22;33686;48.770;9.186;2023-08-08T15:05:03;22.40;97.20
47921;DHT22;33686;48.770;9.186;2023-08-08T15:07:29;22.30;97.30
47921;DHT22;33686;48.770;9.186;2023-08-08T15:09:54;22.40;97.00
47921;DHT22;33686;48.770;9.186;2023-08-08T15:12:20;22.50;97.00
47921;DHT22;33686;48.770;9.186;2023-08-08T15:14:45;22.50;96.90
47921;DHT22;33686;48.770;9.186;2023-08-08T15:17:11;22.20;97.50
47921;DHT22;33686;48.770;9.186;2023-08-08T15:19:36;22.10;97.40
47921;DHT22;33686;48.770;9.186;2023-08-08T15:22:03;21.80;97.90
47921;DHT22;33686;48.770;9.186;2023-08-08T15:24:29;21.70;98.10
47921;DHT22;33686;48.770;9.186;2023-08-08T15:26:54;21.80;98.30
47921;DHT22;33686;48.770;9.186;2023-08-08T15:29:20;21.80;98.40
47921;DHT22;33686;48.770;9.186;2023-08-08T15:31:45;22.00;98.10
47921;DHT22;33686;48.770;9.186;2023-08-08T15:34:11;22.30;97.80
47921;DHT22;33686;48.770;9.186;2023-08-08T15:36:37;22.50;97.40
47921;DHT22;33686;48.770;9.186;2023-08-08T15:39:02;22.60;97.30
47921;DHT22;33686;48.770;9.186;2023-08-08T15:41:28;22.60;97.20
47921;DHT22;33686;48.770;9.186;2023-08-08T15:43:53;22.50;97.40
47921;DHT22;33686;48.770;9.186;2023-08-08T15:46:19;22.30;97.80
47921;DHT22;33686;48.770;9.186;2023-08-08T15:48:44;22.10;97.70
47921;DHT22;33686;48.770;9.186;2023-08-08T15:51:10;22.00;97.80
47921;DHT22;33686;48.770;9.186;2023-08-08T15:53:35;21.90;98.20
47921;DHT22;33686;48.770;9.186;2023-08-08T15:56:01;21.90;98.10
47921;DHT22;33686;48.770;9.186;2023-08-08T15:58:27;21.70;98.40
47921;DHT22;33686;48.770;9.186;2023-08-08T16:00:52;21.60;98.80
47921;DHT22;33686;48.770;9.186;2023-08-08T16:03:18;21.50;98.90
47921;DHT22;33686;48.770;9.186;2023-08-08T16:05:43;21.70;99.10
47921;DHT22;33686;48.770;9.186;2023-08-08T16:08:09;21.50;99.10
47921;DHT22;33686;48.770;9.186;2023-08-08T16:10:35;21.50;99.10
47921;DHT22;33686;48.770;9.186;2023-08-08T16:13:00;21.50;99.30
47921;DHT22;33686;48.770;9.186;2023-08-08T16:15:26;21.70;99.00
47921;DHT22;33686;48.770;9.186;2023-08-08T16:17:52;21.90;99.00
47921;DHT22;33686;48.770;9.186;2023-08-08T16:20:17;21.80;99.10
47921;DHT22;33686;48.770;9.186;2023-08-08T16:22:43;21.90;99.00
47921;DHT22;33686;48.770;9.186;2023-08-08T16:25:08;22.00;99.00
47921;DHT22;33686;48.770;9.186;2023-08-08T16:27:35;21.90;99.10
47921;DHT22;33686;48.770;9.186;2023-08-08T16:30:01;21.90;99.00
47921;DHT22;33686;48.770;9.186;2023-08-08T16:32:28;22.00;99.00
47921;DHT22;33686;48.770;9.186;2023-08-08T16:34:54;22.00;98.80
47921;DHT22;33686;48.770;9.186;2023-08-08T16:37:20;21.70;98.70
47921;DHT22;33686;48.770;9.186;2023-08-08T16:39:46;21.50;98.80
47921;DHT22;33686;48.770;9.186;2023-08-08T16:42:12;21.40;99.10
47921;DHT22;33686;48.770;9.186;2023-08-08T16:44:37;21.20;99.50
47921;DHT22;33686;48.770;9.186;2023-08-08T16:47:03;21.10;99.80
47921;DHT22;33686;48.770;9.186;2023-08-08T16:49:28;21.10;99.90
47921;DHT22;33686;48.770;9.186;2023-08-08T16:51:56;21.20;99.90
47921;DHT22;33686;48.770;9.186;2023-08-08T16:54:21;21.30;99.90
47921;DHT22;33686;48.770;9.186;2023-08-08T16:56:47;21.30;99.90
47921;DHT22;33686;48.770;9.186;2023-08-08T16:59:13;21.30;99.90
47921;DHT22;33686;48.770;9.186;2023-08-08T17:01:39;21.30;99.90
47921;DHT22;33686;48.770;9.186;2023-08-08T17:04:06;21.20;99.90
47921;DHT22;33686;48.770;9.186;2023-08-08T17:06:32;21.10;99.90
47921;DHT22;33686;48.770;9.186;2023-08-08T17:08:58;21.10;99.90
47921;DHT22;33686;48.770;9.186;2023-08-08T17:11:24;21.10;99.90
47921;DHT22;33686;48.770;9.186;2023-08-08T17:13:50;21.00;99.90
47921;DHT22;33686;48.770;9.186;2023-08-08T17:16:15;21.00;99.90
47921;DHT22;33686;48.770;9.186;2023-08-08T17:18:42;21.10;99.90
47921;DHT22;33686;48.770;9.186;2023-08-08T17:21:08;21.10;99.90
47921;DHT22;33686;48.770;9.186;2023-08-08T17:23:34;21.10;99.90
47921;DHT22;33686;48.770;9.186;2023-08-08T17:25:59;21.10;99.90
47921;DHT22;33686;48.770;9.186;2023-08-08T17:28:25;21.10;99.90
47921;DHT22;33686;48.770;9.186;2023-08-08T17:30:50;21.00;99.90
47921;DHT22;33686;48.770;9.186;2023-08-08T17:33:16;21.10;99.90
47921;DHT22;33686;48.770;9.186;2023-08-08T17:35:43;21.10;99.90
47921;DHT22;33686;48.770;9.186;2023-08-08T17:38:08;20.90;99.90
47921;DHT22;33686;48.770;9.186;2023-08-08T17:40:34;20.90;99.90
47921;DHT22;33686;48.770;9.186;2023-08-08T17:42:59;20.90;99.90
47921;DHT22;33686;48.770;9.186;2023-08-08T17:45:25;20.80;99.90
47921;DHT22;33686;48.770;9.186;2023-08-08T17:47:50;20.80;99.90
47921;DHT22;33686;48.770;9.186;2023-08-08T17:50:16;20.80;99.90
47921;DHT22;33686;48.770;9.186;2023-08-08T17:52:41;20.80;99.90
47921;DHT22;33686;48.770;9.186;2023-08-08T17:55:07;20.80;99.90
47921;DHT22;33686;48.770;9.186;2023-08-08T17:57:32;20.80;99.90
47921;DHT22;33686;48.770;9.186;2023-08-08T17:59:58;20.70;99.90
47921;DHT22;33686;48.770;9.186;2023-08-08T18:02:23;20.70;99.90
47921;DHT22;33686;48.770;9.186;2023-08-08T18:04:50;20.60;99.90
47921;DHT22;33686;48.770;9.186;2023-08-08T18:07:15;20.50;99.90
47921;DHT22;33686;48.770;9.186;2023-08-08T18:09:41;20.50;99.90
47921;DHT22;33686;48.770;9.186;2023-08-08T18:12:10;20.40;99.90
47921;DHT22;33686;48.770;9.186;2023-08-08T18:14:36;20.50;99.90
47921;DHT22;33686;48.770;9.186;2023-08-08T18:17:01;20.50;99.90
47921;DHT22;33686;48.770;9.186;2023-08-08T18:19:27;20.50;99.90
47921;DHT22;33686;48.770;9.186;2023-08-08T18:21:53;20.40;99.90
47921;DHT22;33686;48.770;9.186;2023-08-08T18:24:19;20.40;99.90
47921;DHT22;33686;48.770;9.186;2023-08-08T18:26:45;20.30;99.90
47921;DHT22;33686;48.770;9.186;2023-08-08T18:29:10;20.30;99.90
47921;DHT22;33686;48.770;9.186;2023-08-08T18:31:36;20.30;99.90
47921;DHT22;33686;48.770;9.186;2023-08-08T18:34:02;20.30;99.90
47921;DHT22;33686;48.770;9.186;2023-08-08T18:36:28;20.20;99.90
47921;DHT22;33686;48.770;9.186;2023-08-08T18:38:54;20.20;99.90
47921;DHT22;33686;48.770;9.186;2023-08-08T18:41:19;20.10;99.90
47921;DHT22;33686;48.770;9.186;2023-08-08T18:43:45;20.10;99.90
47921;DHT22;33686;48.770;9.186;2023-08-08T18:46:11;20.10;99.90
47921;DHT22;33686;48.770;9.186;2023-08-08T18:48:36;20.00;99.90
47921;DHT22;33686;48.770;9.186;2023-08-08T18:51:02;20.00;99.90
47921;DHT22;33686;48.770;9.186;2023-08-08T18:53:27;20.00;99.90
47921;DHT22;33686;48.770;9.186;2023-08-08T18:55:53;19.90;99.90
47921;DHT22;33686;48.770;9.186;2023-08-08T18:58:18;19.90;99.90
47921;DHT22;33686;48.770;9.186;2023-08-08T19:00:44;19.80;99.90
47921;DHT22;33686;48.770;9.186;2023-08-08T19:03:09;19.80;99.90
47921;DHT22;33686;48.770;9.186;2023-08-08T19:05:35;19.70;99.90
47921;DHT22;33686;48.770;9.186;2023-08-08T19:08:00;19.70;99.90
47921;DHT22;33686;48.770;9.186;2023-08-08T19:10:26;19.60;99.90
47921;DHT22;33686;48.770;9.186;2023-08-08T19:12:51;19.60;99.90
47921;DHT22;33686;48.770;9.186;2023-08-08T19:15:17;19.60;99.90
47921;DHT22;33686;48.770;9.186;2023-08-08T19:17:43;19.60;99.90
47921;DHT22;33686;48.770;9.186;2023-08-08T19:20:08;19.50;99.90
47921;DHT22;33686;48.770;9.186;2023-08-08T19:22:34;19.50;99.90
47921;DHT22;33686;48.770;9.186;2023-08-08T19:25:00;19.50;99.90
47921;DHT22;33686;48.770;9.186;2023-08-08T19:27:25;19.50;99.90
47921;DHT22;33686;48.770;9.186;2023-08-08T19:29:51;19.50;99.90
47921;DHT22;33686;48.770;9.186;2023-08-08T19:32:16;19.50;99.90
47921;DHT22;33686;48.770;9.186;2023-08-08T19:34:42;19.60;99.90
47921;DHT22;33686;48.770;9.186;2023-08-08T19:37:07;19.60;99.90
47921;DHT22;33686;48.770;9.186;2023-08-08T19:39:33;19.60;99.90
47921;DHT22;33686;48.770;9.186;2023-08-08T19:41:59;19.60;99.90
47921;DHT22;33686;48.770;9.186;2023-08-08T19:44:24;19.60;99.90
47921;DHT22;33686;48.770;9.186;2023-08-08T19:46:50;19.50;99.90
47921;DHT22;33686;48.770;9.186;2023-08-08T19:49:15;19.50;99.90
47921;DHT22;33686;48.770;9.186;2023-08-08T19:51:41;19.50;99.90
47921;DHT22;33686;48.770;9.186;2023-08-08T19:54:07;19.50;99.90
47921;DHT22;33686;48.770;9.186;2023-08-08T19:56:32;19.40;99.90
47921;DHT22;33686;48.770;9.186;2023-08-08T19:58:58;19.30;99.90
47921;DHT22;33686;48.770;9.186;2023-08-08T20:01:24;19.30;99.90
47921;DHT22;33686;48.770;9.186;2023-08-08T20:03:50;19.30;99.90
47921;DHT22;33686;48.770;9.186;2023-08-08T20:06:16;19.30;99.90
47921;DHT22;33686;48.770;9.186;2023-08-08T20:08:41;19.20;99.90
47921;DHT22;33686;48.770;9.186;2023-08-08T20:11:07;19.20;99.90
47921;DHT22;33686;48.770;9.186;2023-08-08T20:13:33;19.20;99.90
47921;DHT22;33686;48.770;9.186;2023-08-08T20:15:58;19.20;99.90
47921;DHT22;33686;48.770;9.186;2023-08-08T20:18:24;19.20;99.90
47921;DHT22;33686;48.770;9.186;2023-08-08T20:20:50;19.30;99.90
47921;DHT22;33686;48.770;9.186;2023-08-08T20:23:15;19.30;99.90
47921;DHT22;33686;48.770;9.186;2023-08-08T20:25:41;19.20;99.90
47921;DHT22;33686;48.770;9.186;2023-08-08T20:28:06;19.20;99.90
47921;DHT22;33686;48.770;9.186;2023-08-08T20:30:32;19.10;99.90
47921;DHT22;33686;48.770;9.186;2023-08-08T20:32:58;19.10;99.90
47921;DHT22;33686;48.770;9.186;2023-08-08T20:35:24;19.00;99.90
47921;DHT22;33686;48.770;9.186;2023-08-08T20:37:49;19.10;99.90
47921;DHT22;33686;48.770;9.186;2023-08-08T20:40:15;19.00;99.90